Time;durP1;ratioP1;P1;durP2;ratioP2;P2;SDS_P1;SDS_P2;PMS_P1;PMS_P2;Temp;Humidity;BMP_temperature;BMP_pressure;BME280_temperature;BME280_humidity;BME280_pressure;Samples;Min_cycle;Max_cycle;Signal;HPM_P1;HPM_P2
2022/08/22 00:00:12;;;;;;;0.00;0.00;;;;;;;;;;1718917;28;20197;-70
2022/08/22 00:01:07;;;;;;;0.00;0.00;;;;;;;;;;1718205;28;20797;-69
2022/08/22 00:02:03;;;;;;;0.00;0.00;;;;;;;;;;1719095;28;20359;-69
2022/08/22 00:03:03;;;;;;;0.00;0.00;;;;;;;;;;1718391;28;20274;-70
2022/08/22 00:04:01;;;;;;;0.00;0.00;;;;;;;;;;1717490;28;20205;-69
2022/08/22 00:04:56;;;;;;;0.00;0.00;;;;;;;;;;1718362;28;20220;-69
2022/08/22 00:06:06;;;;;;;0.00;0.00;;;;;;;;;;1718154;28;20258;-69
2022/08/22 00:07:02;;;;;;;0.00;0.00;;;;;;;;;;1719329;28;20231;-70
2022/08/22 00:07:59;;;;;;;0.00;0.00;;;;;;;;;;1719245;28;20209;-69
2022/08/22 00:08:58;;;;;;;0.00;0.00;;;;;;;;;;1717004;28;20208;-69
2022/08/22 00:09:56;;;;;;;0.00;0.00;;;;;;;;;;1719000;28;20802;-69
2022/08/22 00:10:53;;;;;;;0.00;0.00;;;;;;;;;;1718340;28;20589;-69
2022/08/22 00:11:48;;;;;;;0.00;0.00;;;;;;;;;;1718283;28;20215;-69
2022/08/22 00:12:43;;;;;;;0.00;0.00;;;;;;;;;;1719543;28;20635;-69
2022/08/22 00:13:40;;;;;;;0.00;0.00;;;;;;;;;;1718777;28;20209;-69
2022/08/22 00:14:35;;;;;;;0.00;0.00;;;;;;;;;;1719718;28;20201;-69
2022/08/22 00:15:29;;;;;;;0.00;0.00;;;;;;;;;;1718044;28;20220;-71
2022/08/22 00:16:24;;;;;;;0.00;0.00;;;;;;;;;;1718938;28;20216;-70
2022/08/22 00:17:24;;;;;;;0.00;0.00;;;;;;;;;;1719595;28;20528;-71
2022/08/22 00:18:20;;;;;;;0.00;0.00;;;;;;;;;;1719006;28;20232;-71
2022/08/22 00:19:18;;;;;;;0.00;0.00;;;;;;;;;;1713008;28;20225;-70
2022/08/22 00:20:12;;;;;;;0.00;0.00;;;;;;;;;;1718018;28;20645;-69
2022/08/22 00:21:06;;;;;;;0.00;0.00;;;;;;;;;;1719002;28;20232;-69
2022/08/22 00:22:01;;;;;;;0.00;0.00;;;;;;;;;;1719195;28;20571;-69
2022/08/22 00:22:56;;;;;;;0.00;0.00;;;;;;;;;;1719311;28;20209;-69
2022/08/22 00:23:49;;;;;;;0.00;0.00;;;;;;;;;;1719357;28;20216;-69
2022/08/22 00:24:46;;;;;;;0.00;0.00;;;;;;;;;;1718854;28;20208;-69
2022/08/22 00:25:47;;;;;;;0.00;0.00;;;;;;;;;;1718083;28;20268;-69
2022/08/22 00:26:42;;;;;;;0.00;0.00;;;;;;;;;;1718847;28;20295;-69
2022/08/22 00:27:38;;;;;;;0.00;0.00;;;;;;;;;;1712410;28;20212;-69
2022/08/22 00:28:35;;;;;;;0.00;0.00;;;;;;;;;;1718813;28;20263;-69
2022/08/22 00:29:29;;;;;;;0.00;0.00;;;;;;;;;;1719388;28;20208;-69
2022/08/22 00:30:22;;;;;;;0.00;0.00;;;;;;;;;;1717775;28;20227;-69
2022/08/22 00:31:18;;;;;;;0.00;0.00;;;;;;;;;;1718815;28;20201;-69
2022/08/22 00:32:16;;;;;;;0.00;0.00;;;;;;;;;;1719057;28;20669;-70
2022/08/22 00:33:14;;;;;;;0.00;0.00;;;;;;;;;;1718728;28;20209;-69
2022/08/22 00:34:11;;;;;;;0.00;0.00;;;;;;;;;;1719412;28;20232;-70
2022/08/22 00:35:05;;;;;;;0.00;0.00;;;;;;;;;;1718744;28;20205;-69
2022/08/22 00:36:06;;;;;;;0.00;0.00;;;;;;;;;;1717759;28;20236;-70
2022/08/22 00:37:01;;;;;;;0.00;0.00;;;;;;;;;;1719321;28;20241;-71
2022/08/22 00:38:01;;;;;;;0.00;0.00;;;;;;;;;;1719077;28;20220;-70
2022/08/22 00:38:58;;;;;;;0.00;0.00;;;;;;;;;;1717054;28;20236;-70
2022/08/22 00:39:53;;;;;;;0.00;0.00;;;;;;;;;;1718726;28;20212;-71
2022/08/22 00:40:52;;;;;;;0.00;0.00;;;;;;;;;;1718313;28;20248;-71
2022/08/22 00:42:01;;;;;;;0.00;0.00;;;;;;;;;;1718163;28;20209;-71
2022/08/22 00:43:03;;;;;;;0.00;0.00;;;;;;;;;;1718896;28;20217;-71
2022/08/22 00:44:02;;;;;;;0.00;0.00;;;;;;;;;;1717182;28;20328;-71
2022/08/22 00:45:15;;;;;;;0.00;0.00;;;;;;;;;;1718881;28;20483;-71
2022/08/22 00:46:13;;;;;;;0.00;0.00;;;;;;;;;;1691125;29;20283;-69
2022/08/22 00:47:10;;;;;;;0.00;0.00;;;;;;;;;;1717178;28;20209;-70
2022/08/22 00:48:12;;;;;;;0.00;0.00;;;;;;;;;;1719528;28;20208;-69
2022/08/22 00:49:10;;;;;;;0.00;0.00;;;;;;;;;;1719282;28;20375;-69
2022/08/22 00:50:21;;;;;;;0.00;0.00;;;;;;;;;;1719345;28;20532;-69
2022/08/22 00:51:21;;;;;;;0.00;0.00;;;;;;;;;;1712100;28;20573;-71
2022/08/22 00:52:23;;;;;;;0.00;0.00;;;;;;;;;;1709607;28;20513;-71
2022/08/22 00:53:25;;;;;;;0.00;0.00;;;;;;;;;;1712834;28;20291;-71
2022/08/22 00:54:23;;;;;;;0.00;0.00;;;;;;;;;;1705949;29;20233;-71
2022/08/22 00:55:22;;;;;;;0.00;0.00;;;;;;;;;;1713351;28;20213;-71
2022/08/22 00:56:35;;;;;;;0.00;0.00;;;;;;;;;;1723519;28;20213;-70
2022/08/22 00:57:34;;;;;;;0.00;0.00;;;;;;;;;;1723474;28;20204;-71
2022/08/22 00:58:37;;;;;;;0.00;0.00;;;;;;;;;;1719935;28;20623;-71
2022/08/22 00:59:45;;;;;;;0.00;0.00;;;;;;;;;;1724834;28;20315;-71
2022/08/22 01:00:42;;;;;;;0.00;0.00;;;;;;;;;;1716235;28;20247;-71
2022/08/22 01:01:35;;;;;;;0.00;0.00;;;;;;;;;;1718622;28;20209;-71
2022/08/22 01:02:31;;;;;;;0.00;0.00;;;;;;;;;;1724598;28;20212;-71
2022/08/22 01:03:40;;;;;;;0.00;0.00;;;;;;;;;;1719613;28;20220;-70
2022/08/22 01:04:47;;;;;;;0.00;0.00;;;;;;;;;;1720174;28;20707;-71
2022/08/22 01:05:47;;;;;;;0.00;0.00;;;;;;;;;;1716524;28;20906;-71
2022/08/22 01:06:42;;;;;;;0.00;0.00;;;;;;;;;;1718357;28;20239;-71
2022/08/22 01:07:44;;;;;;;0.00;0.00;;;;;;;;;;1712518;28;20218;-71
2022/08/22 01:08:44;;;;;;;0.00;0.00;;;;;;;;;;1720579;28;20341;-71
2022/08/22 01:09:42;;;;;;;0.00;0.00;;;;;;;;;;1723217;28;20208;-71
2022/08/22 01:10:45;;;;;;;0.00;0.00;;;;;;;;;;1722343;28;20247;-71
2022/08/22 01:11:49;;;;;;;0.00;0.00;;;;;;;;;;1720246;28;20213;-71
2022/08/22 01:12:49;;;;;;;0.00;0.00;;;;;;;;;;1718972;28;20205;-71
2022/08/22 01:13:49;;;;;;;0.00;0.00;;;;;;;;;;1718552;28;20220;-71
2022/08/22 01:14:43;;;;;;;0.00;0.00;;;;;;;;;;1718448;28;20205;-71
2022/08/22 01:15:36;;;;;;;0.00;0.00;;;;;;;;;;1722635;28;20598;-71
2022/08/22 01:16:39;;;;;;;0.00;0.00;;;;;;;;;;1721285;28;20205;-71
2022/08/22 01:17:44;;;;;;;0.00;0.00;;;;;;;;;;1725794;28;20689;-70
2022/08/22 01:18:50;;;;;;;0.00;0.00;;;;;;;;;;1720448;28;20204;-70
2022/08/22 01:19:59;;;;;;;0.00;0.00;;;;;;;;;;1722567;28;20225;-70
2022/08/22 01:21:12;;;;;;;0.00;0.00;;;;;;;;;;1717989;28;20237;-69
2022/08/22 01:22:19;;;;;;;0.00;0.00;;;;;;;;;;1718735;28;20212;-69
2022/08/22 01:23:27;;;;;;;0.00;0.00;;;;;;;;;;1718573;28;20205;-69
2022/08/22 01:25:16;;;;;;;0.00;0.00;;;;;;;;;;1712205;28;20489;-69
2022/08/22 01:26:12;;;;;;;0.00;0.00;;;;;;;;;;1717916;28;20700;-71
2022/08/22 01:27:30;;;;;;;0.00;0.00;;;;;;;;;;1721753;28;20611;-70
2022/08/22 01:28:40;;;;;;;0.00;0.00;;;;;;;;;;1719900;28;20503;-70
2022/08/22 01:29:46;;;;;;;0.00;0.00;;;;;;;;;;1712809;28;20563;-70
2022/08/22 01:30:56;;;;;;;0.00;0.00;;;;;;;;;;1716213;28;20285;-70
2022/08/22 01:32:00;;;;;;;0.00;0.00;;;;;;;;;;1715757;28;20205;-71
2022/08/22 01:33:19;;;;;;;0.00;0.00;;;;;;;;;;1718655;28;20590;-70
2022/08/22 01:34:31;;;;;;;0.00;0.00;;;;;;;;;;1717539;28;20201;-71
2022/08/22 01:35:35;;;;;;;0.00;0.00;;;;;;;;;;1717558;28;20259;-69
2022/08/22 01:36:35;;;;;;;0.00;0.00;;;;;;;;;;1725241;28;20254;-69
2022/08/22 01:37:39;;;;;;;0.00;0.00;;;;;;;;;;1732801;28;20222;-69
2022/08/22 01:38:43;;;;;;;0.00;0.00;;;;;;;;;;1732141;28;20203;-69
2022/08/22 01:39:46;;;;;;;0.00;0.00;;;;;;;;;;1732682;28;20269;-69
2022/08/22 01:40:56;;;;;;;0.00;0.00;;;;;;;;;;1731177;28;20254;-69
2022/08/22 01:41:59;;;;;;;0.00;0.00;;;;;;;;;;1730708;28;20637;-69
2022/08/22 01:43:06;;;;;;;0.00;0.00;;;;;;;;;;1732273;28;20211;-69
2022/08/22 01:44:14;;;;;;;0.00;0.00;;;;;;;;;;1730639;28;20199;-69
2022/08/22 01:45:21;;;;;;;0.00;0.00;;;;;;;;;;1731929;28;20543;-69
2022/08/22 01:46:21;;;;;;;0.00;0.00;;;;;;;;;;1729395;28;20311;-70
2022/08/22 01:47:14;;;;;;;0.00;0.00;;;;;;;;;;1731329;28;20645;-69
2022/08/22 01:48:09;;;;;;;0.00;0.00;;;;;;;;;;1730200;28;20637;-69
2022/08/22 01:49:04;;;;;;;0.00;0.00;;;;;;;;;;1730621;28;20199;-69
2022/08/22 01:49:59;;;;;;;0.00;0.00;;;;;;;;;;1731765;28;20227;-69
2022/08/22 01:50:53;;;;;;;0.00;0.00;;;;;;;;;;1731022;28;20597;-70
2022/08/22 01:51:46;;;;;;;0.00;0.00;;;;;;;;;;1731564;28;20211;-70
2022/08/22 01:52:43;;;;;;;0.00;0.00;;;;;;;;;;1732553;28;20721;-70
2022/08/22 01:53:39;;;;;;;0.00;0.00;;;;;;;;;;1731905;28;20208;-70
2022/08/22 01:54:41;;;;;;;0.00;0.00;;;;;;;;;;1732238;28;20266;-70
2022/08/22 01:55:36;;;;;;;0.00;0.00;;;;;;;;;;1728993;28;20569;-69
2022/08/22 01:56:32;;;;;;;0.00;0.00;;;;;;;;;;1731731;28;20222;-69
2022/08/22 01:57:25;;;;;;;0.00;0.00;;;;;;;;;;1732661;28;20581;-69
2022/08/22 01:58:20;;;;;;;0.00;0.00;;;;;;;;;;1731994;28;20234;-69
2022/08/22 01:59:13;;;;;;;0.00;0.00;;;;;;;;;;1732539;28;20203;-69
2022/08/22 02:00:15;;;;;;;0.00;0.00;;;;;;;;;;1731821;28;20195;-69
2022/08/22 02:01:17;;;;;;;0.00;0.00;;;;;;;;;;1730916;28;20258;-70
2022/08/22 02:02:27;;;;;;;0.00;0.00;;;;;;;;;;1731712;28;20265;-70
2022/08/22 02:03:22;;;;;;;0.00;0.00;;;;;;;;;;1730978;28;20218;-70
2022/08/22 02:04:16;;;;;;;0.00;0.00;;;;;;;;;;1725382;28;20279;-70
2022/08/22 02:05:10;;;;;;;0.00;0.00;;;;;;;;;;1730840;28;20204;-72
2022/08/22 02:06:06;;;;;;;0.00;0.00;;;;;;;;;;1731870;28;20660;-70
2022/08/22 02:07:00;;;;;;;0.00;0.00;;;;;;;;;;1731902;28;20322;-70
2022/08/22 02:07:56;;;;;;;0.00;0.00;;;;;;;;;;1731948;28;20508;-70
2022/08/22 02:08:53;;;;;;;0.00;0.00;;;;;;;;;;1732043;28;20215;-70
2022/08/22 02:09:47;;;;;;;0.00;0.00;;;;;;;;;;1731715;28;20208;-70
2022/08/22 02:10:42;;;;;;;0.00;0.00;;;;;;;;;;1731151;28;20310;-69
2022/08/22 02:11:38;;;;;;;0.00;0.00;;;;;;;;;;1731790;28;20208;-69
2022/08/22 02:12:34;;;;;;;0.00;0.00;;;;;;;;;;1732566;28;20626;-69
2022/08/22 02:13:32;;;;;;;0.00;0.00;;;;;;;;;;1731499;28;20568;-69
2022/08/22 02:14:29;;;;;;;0.00;0.00;;;;;;;;;;1732590;28;20204;-69
2022/08/22 02:15:23;;;;;;;0.00;0.00;;;;;;;;;;1733568;28;20210;-71
2022/08/22 02:16:17;;;;;;;0.00;0.00;;;;;;;;;;1737084;28;20199;-70
2022/08/22 02:17:13;;;;;;;0.00;0.00;;;;;;;;;;1732226;28;20263;-70
2022/08/22 02:18:11;;;;;;;0.00;0.00;;;;;;;;;;1731637;28;20211;-70
2022/08/22 02:19:08;;;;;;;0.00;0.00;;;;;;;;;;1732175;28;20514;-70
2022/08/22 02:20:02;;;;;;;0.00;0.00;;;;;;;;;;1731786;28;20272;-70
2022/08/22 02:21:00;;;;;;;0.00;0.00;;;;;;;;;;1724574;28;20335;-70
2022/08/22 02:21:55;;;;;;;0.00;0.00;;;;;;;;;;1731427;28;20538;-70
2022/08/22 02:22:54;;;;;;;0.00;0.00;;;;;;;;;;1732284;28;20208;-70
2022/08/22 02:23:50;;;;;;;0.00;0.00;;;;;;;;;;1732284;28;20636;-70
2022/08/22 02:24:46;;;;;;;0.00;0.00;;;;;;;;;;1731609;28;20214;-70
2022/08/22 02:25:48;;;;;;;0.00;0.00;;;;;;;;;;1725216;28;20461;-70
2022/08/22 02:26:42;;;;;;;0.00;0.00;;;;;;;;;;1738189;28;20648;-70
2022/08/22 02:27:38;;;;;;;0.00;0.00;;;;;;;;;;1729266;28;20209;-70
2022/08/22 02:28:33;;;;;;;0.00;0.00;;;;;;;;;;1731802;28;20515;-70
2022/08/22 02:29:30;;;;;;;0.00;0.00;;;;;;;;;;1733481;28;20204;-70
2022/08/22 02:30:26;;;;;;;0.00;0.00;;;;;;;;;;1732309;28;20257;-70
2022/08/22 02:31:19;;;;;;;0.00;0.00;;;;;;;;;;1733163;28;20624;-70
2022/08/22 02:32:17;;;;;;;0.00;0.00;;;;;;;;;;1733266;28;20637;-70
2022/08/22 02:33:12;;;;;;;0.00;0.00;;;;;;;;;;1733086;28;20212;-70
2022/08/22 02:34:14;;;;;;;0.00;0.00;;;;;;;;;;1733569;28;20583;-70
2022/08/22 02:35:18;;;;;;;0.00;0.00;;;;;;;;;;1733081;28;20196;-70
2022/08/22 02:36:15;;;;;;;0.00;0.00;;;;;;;;;;1731845;28;20243;-71
2022/08/22 02:37:13;;;;;;;0.00;0.00;;;;;;;;;;1733192;28;20199;-70
2022/08/22 02:38:14;;;;;;;0.00;0.00;;;;;;;;;;1733041;28;20207;-71
2022/08/22 02:39:08;;;;;;;0.00;0.00;;;;;;;;;;1733649;28;20257;-70
2022/08/22 02:40:05;;;;;;;0.00;0.00;;;;;;;;;;1733034;28;20215;-70
2022/08/22 02:41:03;;;;;;;0.00;0.00;;;;;;;;;;1725093;28;20310;-70
2022/08/22 02:41:57;;;;;;;0.00;0.00;;;;;;;;;;1732752;28;20557;-71
2022/08/22 02:42:51;;;;;;;0.00;0.00;;;;;;;;;;1733340;28;20468;-70
2022/08/22 02:43:46;;;;;;;0.00;0.00;;;;;;;;;;1733304;28;20703;-71
2022/08/22 02:44:40;;;;;;;0.00;0.00;;;;;;;;;;1733267;28;20294;-71
2022/08/22 02:45:37;;;;;;;0.00;0.00;;;;;;;;;;1732646;28;20552;-69
2022/08/22 02:46:32;;;;;;;0.00;0.00;;;;;;;;;;1733047;28;20233;-69
2022/08/22 02:47:27;;;;;;;0.00;0.00;;;;;;;;;;1733750;28;20231;-69
2022/08/22 02:48:27;;;;;;;0.00;0.00;;;;;;;;;;1733266;28;20498;-69
2022/08/22 02:49:20;;;;;;;0.00;0.00;;;;;;;;;;1727030;28;20191;-69
2022/08/22 02:50:18;;;;;;;0.00;0.00;;;;;;;;;;1731804;28;20199;-69
2022/08/22 02:51:12;;;;;;;0.00;0.00;;;;;;;;;;1733045;28;20214;-69
2022/08/22 02:52:13;;;;;;;0.00;0.00;;;;;;;;;;1736049;28;20537;-69
2022/08/22 02:53:10;;;;;;;0.00;0.00;;;;;;;;;;1736699;28;20242;-69
2022/08/22 02:54:08;;;;;;;0.00;0.00;;;;;;;;;;1733716;28;20624;-69
2022/08/22 02:55:00;;;;;;;0.00;0.00;;;;;;;;;;1733108;28;20215;-69
2022/08/22 02:55:54;;;;;;;0.00;0.00;;;;;;;;;;1732560;28;20330;-70
2022/08/22 02:56:52;;;;;;;0.00;0.00;;;;;;;;;;1732515;28;20208;-70
2022/08/22 02:57:47;;;;;;;0.00;0.00;;;;;;;;;;1733557;28;20679;-70
2022/08/22 02:58:40;;;;;;;0.00;0.00;;;;;;;;;;1735841;28;20223;-70
2022/08/22 02:59:35;;;;;;;0.00;0.00;;;;;;;;;;1738802;28;20469;-70
2022/08/22 03:00:28;;;;;;;0.00;0.00;;;;;;;;;;1731769;28;20208;-69
2022/08/22 03:01:36;;;;;;;0.00;0.00;;;;;;;;;;1733070;28;20572;-69
2022/08/22 03:02:32;;;;;;;0.00;0.00;;;;;;;;;;1732444;28;20210;-69
2022/08/22 03:03:27;;;;;;;0.00;0.00;;;;;;;;;;1732872;28;20195;-69
2022/08/22 03:04:46;;;;;;;0.00;0.00;;;;;;;;;;1733745;28;20287;-69
2022/08/22 03:05:47;;;;;;;0.00;0.00;;;;;;;;;;1730293;28;20235;-70
2022/08/22 03:06:39;;;;;;;0.00;0.00;;;;;;;;;;1733034;28;20212;-70
2022/08/22 03:07:37;;;;;;;0.00;0.00;;;;;;;;;;1733236;28;20781;-71
2022/08/22 03:08:30;;;;;;;0.00;0.00;;;;;;;;;;1732881;28;20515;-70
2022/08/22 03:09:24;;;;;;;0.00;0.00;;;;;;;;;;1733712;28;20208;-71
2022/08/22 03:10:20;;;;;;;0.00;0.00;;;;;;;;;;1733315;28;20232;-69
2022/08/22 03:11:15;;;;;;;0.00;0.00;;;;;;;;;;1738768;28;20210;-69
2022/08/22 03:12:15;;;;;;;0.00;0.00;;;;;;;;;;1732653;28;20199;-69
2022/08/22 03:13:08;;;;;;;0.00;0.00;;;;;;;;;;1732332;28;20257;-69
2022/08/22 03:14:06;;;;;;;0.00;0.00;;;;;;;;;;1733350;28;20588;-69
2022/08/22 03:15:02;;;;;;;0.00;0.00;;;;;;;;;;1732902;28;20218;-69
2022/08/22 03:15:55;;;;;;;0.00;0.00;;;;;;;;;;1725671;28;20661;-69
2022/08/22 03:16:51;;;;;;;0.00;0.00;;;;;;;;;;1731718;28;20272;-69
2022/08/22 03:17:48;;;;;;;0.00;0.00;;;;;;;;;;1733287;28;20200;-69
2022/08/22 03:18:43;;;;;;;0.00;0.00;;;;;;;;;;1732573;28;20656;-70
2022/08/22 03:19:47;;;;;;;0.00;0.00;;;;;;;;;;1732753;28;20203;-69
2022/08/22 03:20:41;;;;;;;0.00;0.00;;;;;;;;;;1730441;28;20697;-69
2022/08/22 03:21:36;;;;;;;0.00;0.00;;;;;;;;;;1732867;28;20211;-69
2022/08/22 03:22:35;;;;;;;0.00;0.00;;;;;;;;;;1733322;28;20216;-69
2022/08/22 03:23:32;;;;;;;0.00;0.00;;;;;;;;;;1732787;28;20291;-70
2022/08/22 03:24:31;;;;;;;0.00;0.00;;;;;;;;;;1733375;28;20208;-69
2022/08/22 03:25:26;;;;;;;0.00;0.00;;;;;;;;;;1734518;28;20223;-69
2022/08/22 03:26:22;;;;;;;0.00;0.00;;;;;;;;;;1737482;28;20236;-70
2022/08/22 03:27:19;;;;;;;0.00;0.00;;;;;;;;;;1733212;28;20196;-70
2022/08/22 03:28:13;;;;;;;0.00;0.00;;;;;;;;;;1732597;28;20274;-70
2022/08/22 03:29:08;;;;;;;0.00;0.00;;;;;;;;;;1733079;28;20687;-69
2022/08/22 03:30:01;;;;;;;0.00;0.00;;;;;;;;;;1730888;28;20204;-69
2022/08/22 03:30:58;;;;;;;0.00;0.00;;;;;;;;;;1735698;28;20231;-69
2022/08/22 03:32:04;;;;;;;0.00;0.00;;;;;;;;;;1732295;28;20207;-69
2022/08/22 03:32:58;;;;;;;0.00;0.00;;;;;;;;;;1732695;28;20262;-69
2022/08/22 03:34:05;;;;;;;0.00;0.00;;;;;;;;;;1733388;28;20212;-69
2022/08/22 03:34:58;;;;;;;0.00;0.00;;;;;;;;;;1731794;28;20235;-69
2022/08/22 03:36:05;;;;;;;0.00;0.00;;;;;;;;;;1738478;28;20241;-69
2022/08/22 03:37:01;;;;;;;0.00;0.00;;;;;;;;;;1730624;28;20204;-69
2022/08/22 03:37:56;;;;;;;0.00;0.00;;;;;;;;;;1732993;28;20651;-70
2022/08/22 03:38:52;;;;;;;0.00;0.00;;;;;;;;;;1732749;28;20208;-69
2022/08/22 03:39:50;;;;;;;0.00;0.00;;;;;;;;;;1732233;28;20204;-69
2022/08/22 03:40:48;;;;;;;0.00;0.00;;;;;;;;;;1731937;28;20613;-69
2022/08/22 03:41:57;;;;;;;0.00;0.00;;;;;;;;;;1732490;28;20212;-69
2022/08/22 03:43:00;;;;;;;0.00;0.00;;;;;;;;;;1726586;28;20211;-69
2022/08/22 03:43:59;;;;;;;0.00;0.00;;;;;;;;;;1731247;28;20509;-69
2022/08/22 03:45:22;;;;;;;0.00;0.00;;;;;;;;;;1732470;28;20242;-69
2022/08/22 03:46:31;;;;;;;0.00;0.00;;;;;;;;;;1729148;28;20231;-69
2022/08/22 03:47:33;;;;;;;0.00;0.00;;;;;;;;;;1721652;28;20214;-69
2022/08/22 03:48:52;;;;;;;0.00;0.00;;;;;;;;;;1732595;28;20204;-69
2022/08/22 03:49:52;;;;;;;0.00;0.00;;;;;;;;;;1732640;28;20208;-69
2022/08/22 03:51:10;;;;;;;0.00;0.00;;;;;;;;;;1731757;28;20250;-69
2022/08/22 03:52:11;;;;;;;0.00;0.00;;;;;;;;;;1711589;28;20300;-69
2022/08/22 03:53:17;;;;;;;0.00;0.00;;;;;;;;;;1722279;28;20212;-69
2022/08/22 03:54:19;;;;;;;0.00;0.00;;;;;;;;;;1730837;28;20207;-69
2022/08/22 03:55:20;;;;;;;0.00;0.00;;;;;;;;;;1731294;28;20223;-69
2022/08/22 03:56:31;;;;;;;0.00;0.00;;;;;;;;;;1732478;28;20200;-69
2022/08/22 03:57:37;;;;;;;0.00;0.00;;;;;;;;;;1731936;28;20633;-69
2022/08/22 03:58:54;;;;;;;0.00;0.00;;;;;;;;;;1732517;28;20242;-69
2022/08/22 04:00:05;;;;;;;0.00;0.00;;;;;;;;;;1732372;28;20672;-69
2022/08/22 04:01:08;;;;;;;0.00;0.00;;;;;;;;;;1724981;28;20240;-70
2022/08/22 04:02:07;;;;;;;0.00;0.00;;;;;;;;;;1732145;28;20212;-70
2022/08/22 04:03:15;;;;;;;0.00;0.00;;;;;;;;;;1731971;28;20200;-70
2022/08/22 04:04:25;;;;;;;0.00;0.00;;;;;;;;;;1730717;28;20253;-70
2022/08/22 04:05:33;;;;;;;0.00;0.00;;;;;;;;;;1731270;28;20196;-70
2022/08/22 04:06:39;;;;;;;0.00;0.00;;;;;;;;;;1732266;28;20200;-70
2022/08/22 04:07:48;;;;;;;0.00;0.00;;;;;;;;;;1732479;28;20440;-70
2022/08/22 04:08:57;;;;;;;0.00;0.00;;;;;;;;;;1732645;28;20239;-70
2022/08/22 04:10:08;;;;;;;0.00;0.00;;;;;;;;;;1719409;28;20668;-70
2022/08/22 04:11:11;;;;;;;0.00;0.00;;;;;;;;;;1724774;28;20229;-69
2022/08/22 04:12:16;;;;;;;0.00;0.00;;;;;;;;;;1735103;28;20204;-69
2022/08/22 04:13:27;;;;;;;0.00;0.00;;;;;;;;;;1735558;28;20815;-69
2022/08/22 04:14:38;;;;;;;0.00;0.00;;;;;;;;;;1726171;28;20200;-69
2022/08/22 04:15:45;;;;;;;0.00;0.00;;;;;;;;;;1731695;28;20223;-70
2022/08/22 04:17:03;;;;;;;0.00;0.00;;;;;;;;;;1732306;28;20207;-70
2022/08/22 04:18:08;;;;;;;0.00;0.00;;;;;;;;;;1706025;28;20230;-70
2022/08/22 04:19:15;;;;;;;0.00;0.00;;;;;;;;;;1722847;28;20219;-70
2022/08/22 04:20:25;;;;;;;0.00;0.00;;;;;;;;;;1732446;28;20538;-70
2022/08/22 04:21:23;;;;;;;0.00;0.00;;;;;;;;;;1730994;28;20231;-70
2022/08/22 04:22:39;;;;;;;0.00;0.00;;;;;;;;;;1732540;28;20587;-70
2022/08/22 04:23:40;;;;;;;0.00;0.00;;;;;;;;;;1731872;28;20211;-70
2022/08/22 04:24:37;;;;;;;0.00;0.00;;;;;;;;;;1732618;28;20226;-70
2022/08/22 04:25:32;;;;;;;0.00;0.00;;;;;;;;;;1731516;28;25228;-69
2022/08/22 04:26:30;;;;;;;0.00;0.00;;;;;;;;;;1732396;28;20541;-69
2022/08/22 04:27:24;;;;;;;0.00;0.00;;;;;;;;;;1732985;28;20208;-69
2022/08/22 04:28:19;;;;;;;0.00;0.00;;;;;;;;;;1732167;28;20239;-69
2022/08/22 04:29:15;;;;;;;0.00;0.00;;;;;;;;;;1732487;28;20436;-69
2022/08/22 04:30:10;;;;;;;0.00;0.00;;;;;;;;;;1732606;28;20269;-69
2022/08/22 04:31:04;;;;;;;0.00;0.00;;;;;;;;;;1731609;28;20752;-70
2022/08/22 04:32:01;;;;;;;0.00;0.00;;;;;;;;;;1732115;28;20213;-70
2022/08/22 04:32:56;;;;;;;0.00;0.00;;;;;;;;;;1732610;28;20215;-70
2022/08/22 04:33:52;;;;;;;0.00;0.00;;;;;;;;;;1732232;28;20211;-70
2022/08/22 04:34:46;;;;;;;0.00;0.00;;;;;;;;;;1731857;28;20239;-70
2022/08/22 04:35:41;;;;;;;0.00;0.00;;;;;;;;;;1731621;28;20239;-70
2022/08/22 04:36:35;;;;;;;0.00;0.00;;;;;;;;;;1731684;28;20704;-70
2022/08/22 04:37:33;;;;;;;0.00;0.00;;;;;;;;;;1732677;28;20584;-70
2022/08/22 04:38:28;;;;;;;0.00;0.00;;;;;;;;;;1732188;28;20200;-70
2022/08/22 04:39:24;;;;;;;0.00;0.00;;;;;;;;;;1732743;28;20659;-70
2022/08/22 04:40:19;;;;;;;0.00;0.00;;;;;;;;;;1730952;28;20621;-70
2022/08/22 04:41:13;;;;;;;0.00;0.00;;;;;;;;;;1732391;28;20204;-70
2022/08/22 04:42:09;;;;;;;0.00;0.00;;;;;;;;;;1732178;28;20261;-70
2022/08/22 04:43:05;;;;;;;0.00;0.00;;;;;;;;;;1732214;28;20693;-70
2022/08/22 04:43:58;;;;;;;0.00;0.00;;;;;;;;;;1732796;28;20710;-70
2022/08/22 04:44:55;;;;;;;0.00;0.00;;;;;;;;;;1731677;28;20509;-70
2022/08/22 04:45:48;;;;;;;0.00;0.00;;;;;;;;;;1731670;28;20284;-70
2022/08/22 04:46:45;;;;;;;0.00;0.00;;;;;;;;;;1732279;28;21531;-70
2022/08/22 04:47:38;;;;;;;0.00;0.00;;;;;;;;;;1725994;28;20315;-70
2022/08/22 04:48:33;;;;;;;0.00;0.00;;;;;;;;;;1731698;28;20251;-70
2022/08/22 04:49:28;;;;;;;0.00;0.00;;;;;;;;;;1732756;28;20199;-70
2022/08/22 04:50:23;;;;;;;0.00;0.00;;;;;;;;;;1730898;28;20200;-70
2022/08/22 04:51:18;;;;;;;0.10;0.10;;;;;;;;;;1731793;28;20233;-70
2022/08/22 04:52:14;;;;;;;0.00;0.00;;;;;;;;;;1732227;28;20303;-70
2022/08/22 04:53:13;;;;;;;0.00;0.00;;;;;;;;;;1732062;28;20215;-70
2022/08/22 04:54:12;;;;;;;0.00;0.00;;;;;;;;;;1738330;28;20195;-70
2022/08/22 04:55:09;;;;;;;0.00;0.00;;;;;;;;;;1733414;28;20208;-70
2022/08/22 04:56:06;;;;;;;0.00;0.00;;;;;;;;;;1737929;28;20227;-69
2022/08/22 04:57:06;;;;;;;0.00;0.00;;;;;;;;;;1732465;28;20219;-69
2022/08/22 04:58:03;;;;;;;0.00;0.00;;;;;;;;;;1732230;28;20270;-70
2022/08/22 04:58:57;;;;;;;0.00;0.00;;;;;;;;;;1732898;28;20513;-69
2022/08/22 04:59:49;;;;;;;0.00;0.00;;;;;;;;;;1731983;28;20239;-69
2022/08/22 05:00:54;;;;;;;0.00;0.00;;;;;;;;;;1731553;28;20239;-69
2022/08/22 05:01:47;;;;;;;0.00;0.00;;;;;;;;;;1731796;28;20597;-69
2022/08/22 05:02:41;;;;;;;0.00;0.00;;;;;;;;;;1732260;28;20246;-70
2022/08/22 05:03:36;;;;;;;0.00;0.00;;;;;;;;;;1732022;28;20204;-69
2022/08/22 05:04:29;;;;;;;0.00;0.00;;;;;;;;;;1732512;28;20211;-69
2022/08/22 05:05:24;;;;;;;0.00;0.00;;;;;;;;;;1731186;28;20635;-69
2022/08/22 05:06:17;;;;;;;0.00;0.00;;;;;;;;;;1731989;28;20247;-69
2022/08/22 05:07:12;;;;;;;0.00;0.00;;;;;;;;;;1731585;28;20254;-69
2022/08/22 05:08:05;;;;;;;0.00;0.00;;;;;;;;;;1732002;28;20228;-69
2022/08/22 05:09:00;;;;;;;0.00;0.00;;;;;;;;;;1732704;28;20207;-69
2022/08/22 05:09:55;;;;;;;0.00;0.00;;;;;;;;;;1732120;28;20213;-70
2022/08/22 05:10:48;;;;;;;0.00;0.00;;;;;;;;;;1737429;28;20237;-69
2022/08/22 05:11:40;;;;;;;0.00;0.00;;;;;;;;;;1733517;28;20204;-69
2022/08/22 05:12:34;;;;;;;0.00;0.00;;;;;;;;;;1732190;28;20211;-69
2022/08/22 05:13:28;;;;;;;0.00;0.00;;;;;;;;;;1731900;28;20199;-70
2022/08/22 05:14:23;;;;;;;0.00;0.00;;;;;;;;;;1732774;28;20203;-69
2022/08/22 05:15:17;;;;;;;0.00;0.00;;;;;;;;;;1730830;28;20196;-70
2022/08/22 05:16:13;;;;;;;0.00;0.00;;;;;;;;;;1732440;28;20613;-70
2022/08/22 05:17:07;;;;;;;0.00;0.00;;;;;;;;;;1732040;28;20652;-70
2022/08/22 05:18:00;;;;;;;0.00;0.00;;;;;;;;;;1731722;28;20208;-70
2022/08/22 05:18:54;;;;;;;0.00;0.00;;;;;;;;;;1732522;28;20656;-70
2022/08/22 05:19:49;;;;;;;0.00;0.00;;;;;;;;;;1731843;28;20204;-70
2022/08/22 05:20:41;;;;;;;0.00;0.00;;;;;;;;;;1729772;28;20247;-70
2022/08/22 05:21:36;;;;;;;0.00;0.00;;;;;;;;;;1731850;28;20277;-70
2022/08/22 05:22:29;;;;;;;0.00;0.00;;;;;;;;;;1732197;28;20204;-70
2022/08/22 05:23:23;;;;;;;0.00;0.00;;;;;;;;;;1731659;28;20657;-70
2022/08/22 05:24:19;;;;;;;0.00;0.00;;;;;;;;;;1739360;28;20210;-70
2022/08/22 05:25:13;;;;;;;0.00;0.00;;;;;;;;;;1732645;28;20222;-70
2022/08/22 05:26:05;;;;;;;0.00;0.00;;;;;;;;;;1738256;28;20599;-69
2022/08/22 05:27:00;;;;;;;0.00;0.00;;;;;;;;;;1731974;28;20290;-69
2022/08/22 05:27:55;;;;;;;0.00;0.00;;;;;;;;;;1732121;28;20584;-69
2022/08/22 05:28:50;;;;;;;0.00;0.00;;;;;;;;;;1731836;28;20239;-69
2022/08/22 05:29:42;;;;;;;0.00;0.00;;;;;;;;;;1731722;28;20210;-69
2022/08/22 05:30:36;;;;;;;0.00;0.00;;;;;;;;;;1731306;28;20227;-70
2022/08/22 05:31:29;;;;;;;0.00;0.00;;;;;;;;;;1731859;28;20203;-69
2022/08/22 05:32:24;;;;;;;0.00;0.00;;;;;;;;;;1732361;28;20200;-70
2022/08/22 05:33:19;;;;;;;0.00;0.00;;;;;;;;;;1731587;28;20647;-69
2022/08/22 05:34:12;;;;;;;0.00;0.00;;;;;;;;;;1732209;28;20433;-70
2022/08/22 05:35:05;;;;;;;0.00;0.00;;;;;;;;;;1731583;28;20281;-69
2022/08/22 05:35:59;;;;;;;0.00;0.00;;;;;;;;;;1731141;28;20238;-70
2022/08/22 05:36:54;;;;;;;0.00;0.00;;;;;;;;;;1731232;28;20399;-70
2022/08/22 05:37:49;;;;;;;0.00;0.00;;;;;;;;;;1732332;28;20269;-70
2022/08/22 05:38:44;;;;;;;0.00;0.00;;;;;;;;;;1734272;28;20199;-70
2022/08/22 05:39:38;;;;;;;0.00;0.00;;;;;;;;;;1731836;28;20207;-70
2022/08/22 05:40:31;;;;;;;0.00;0.00;;;;;;;;;;1734091;28;20234;-71
2022/08/22 05:41:24;;;;;;;0.00;0.00;;;;;;;;;;1736358;28;20588;-71
2022/08/22 05:42:18;;;;;;;0.00;0.00;;;;;;;;;;1729822;28;20659;-71
2022/08/22 05:43:11;;;;;;;0.00;0.00;;;;;;;;;;1731838;28;20624;-71
2022/08/22 05:44:04;;;;;;;0.00;0.00;;;;;;;;;;1732327;28;20200;-70
2022/08/22 05:44:56;;;;;;;0.00;0.00;;;;;;;;;;1731773;28;20616;-71
2022/08/22 05:45:48;;;;;;;0.00;0.00;;;;;;;;;;1737349;28;20631;-71
2022/08/22 05:46:41;;;;;;;0.00;0.00;;;;;;;;;;1733529;28;20257;-71
2022/08/22 05:47:35;;;;;;;0.00;0.00;;;;;;;;;;1739246;28;20215;-70
2022/08/22 05:48:32;;;;;;;0.00;0.00;;;;;;;;;;1732512;28;20228;-71
2022/08/22 05:49:29;;;;;;;0.00;0.00;;;;;;;;;;1732506;28;20234;-71
2022/08/22 05:50:24;;;;;;;0.00;0.00;;;;;;;;;;1730653;28;20209;-69
2022/08/22 05:51:17;;;;;;;0.00;0.00;;;;;;;;;;1731889;28;20206;-70